VCE weather

Venice Marco Polo Airport
Venice, Veneto, Italy

Public forecast

Using degrees Celsius for public forecast. Weather courtesy of forecast.io.

Current aviation weather report (METAR) for Venice Marco Polo Airport

Retrieved 2020/02/21 15:20 UTC (14 minutes ago):

LIPZ 211520Z VRB02KT CAVOK 12/04 Q1025 NOSIG

Aviation forecast (TAF) for Venice Marco Polo Airport

Retrieved 2020/02/21 12:21 UTC (3 hours ago):

TAF LIPZ 211100Z 2112/2218 VRB05KT CAVOK